KABQ/ABQ METAR and TAF weather

Enter ICAO airport designator
Station Type Date Time Source
KABQ METAR 2020/09/21 08:52 UTC NOAA

KABQ 210852Z 00000KT 10SM CLR 19/02 A3022 RMK AO2 SLP151 T01890017 50003


Station Type Date Time Source
KABQ Decoded METAR 2020/09/21 08:52 UTC NOAA

ALBUQUERQUE INTERNATIONAL AIRPORT, NM, United States (KABQ) 35-02N 106-36W 1618M
Sep 21, 2020 - 04:52 AM EDT / 2020.09.21 0852 UTC
Wind: Calm:0
Visibility: 10 mile(s):0
Sky conditions: clear
Temperature: 66.0 F (18.9 C)
Dew Point: 35.1 F (1.7 C)
Relative Humidity: 31%
Pressure (altimeter): 30.22 in. Hg (1023 hPa)
Pressure tendency: 0.01 inches (0.3 hPa) higher than three hours ago
ob: KABQ 210852Z 00000KT 10SM CLR 19/02 A3022 RMK AO2 SLP151 T01890017 50003
cycle: 9

Station Type Date Time Source
KABQ TAF 2020/09/21 06:54 UTC NOAA

TAF KABQ 210552Z 2106/2206 VRB06KT P6SM SKC

Example: see airport list